createdAt,value
2018-11-20T00:01:59.253Z,100356.62
2018-11-20T00:07:26.120Z,100340.18
2018-11-20T00:12:48.518Z,100333.13
2018-11-20T00:18:00.067Z,100331.29
2018-11-20T00:23:33.239Z,100322.92
2018-11-20T00:28:53.265Z,100328.43
2018-11-20T00:34:09.877Z,100313.69
2018-11-20T00:39:52.060Z,100308.44
2018-11-20T00:45:12.719Z,100320.33
2018-11-20T00:50:35.954Z,100323.06
2018-11-20T00:56:34.727Z,100315.25
2018-11-20T01:02:01.330Z,100311.73
2018-11-20T01:07:24.130Z,100315.66
2018-11-20T01:13:06.568Z,100305.00
2018-11-20T01:18:48.967Z,100305.59
2018-11-20T01:24:11.261Z,100298.21
2018-11-20T01:29:28.869Z,100283.44
2018-11-20T01:35:10.347Z,100278.43
2018-11-20T01:40:37.097Z,100272.41
2018-11-20T01:45:56.565Z,100265.38
2018-11-20T01:51:20.632Z,100242.92
2018-11-20T01:56:59.741Z,100218.48
2018-11-20T02:02:26.709Z,100211.34
2018-11-20T02:07:49.479Z,100207.30
2018-11-20T02:14:04.197Z,100200.80
2018-11-20T02:19:27.129Z,100196.92
2018-11-20T02:24:55.827Z,100195.25
2018-11-20T02:30:09.675Z,100197.87
2018-11-20T02:35:28.965Z,100190.44
2018-11-20T02:40:45.806Z,100176.02
2018-11-20T02:46:12.260Z,100169.23
2018-11-20T02:51:41.946Z,100179.23
2018-11-20T02:57:06.537Z,100190.91
2018-11-20T03:02:39.826Z,100208.91
2018-11-20T03:08:06.707Z,100200.25
2018-11-20T03:13:42.705Z,100188.80
2018-11-20T03:19:06.997Z,100194.83
2018-11-20T03:24:29.823Z,100203.05
2018-11-20T03:30:38.339Z,100199.51
2018-11-20T03:35:53.345Z,100189.17
2018-11-20T03:41:29.532Z,100190.17
2018-11-20T03:47:05.423Z,100177.06
2018-11-20T03:52:35.259Z,100158.36
2018-11-20T03:58:04.717Z,100161.77
2018-11-20T04:03:24.365Z,100161.83
2018-11-20T04:08:48.413Z,100166.34
2018-11-20T04:14:10.764Z,100156.64
2018-11-20T04:19:33.635Z,100147.41
2018-11-20T04:24:56.483Z,100149.25
2018-11-20T04:31:02.331Z,100149.01
2018-11-20T04:36:33.744Z,100157.71
2018-11-20T04:41:57.777Z,100137.69
2018-11-20T04:47:20.419Z,100145.94
2018-11-20T04:52:55.679Z,100140.41
2018-11-20T04:58:34.871Z,100138.07
2018-11-20T05:04:02.111Z,100143.84
2018-11-20T05:09:27.761Z,100145.70
2018-11-20T05:14:51.859Z,100135.40
2018-11-20T05:20:18.491Z,100129.48
2018-11-20T05:25:54.705Z,100132.83
2018-11-20T05:31:27.847Z,100131.75
2018-11-20T05:36:50.435Z,100120.74
2018-11-20T05:42:17.192Z,100112.05
2018-11-20T05:47:40.506Z,100110.67
2018-11-20T05:53:04.581Z,100112.56
2018-11-20T05:58:17.548Z,100115.01
2018-11-20T06:03:53.480Z,100122.34
2018-11-20T06:09:15.939Z,100117.52
2018-11-20T06:14:32.763Z,100131.47
2018-11-20T06:20:08.931Z,100125.44
2018-11-20T06:25:31.747Z,100122.39
2018-11-20T06:31:00.933Z,100121.09
2018-11-20T06:36:27.661Z,100115.45
2018-11-20T06:41:50.729Z,100119.61
2018-11-20T06:47:33.137Z,100103.97
2018-11-20T06:53:07.947Z,100097.36
2018-11-20T06:58:47.131Z,100104.25
2018-11-20T07:04:10.093Z,100102.26
2018-11-20T07:09:32.651Z,100106.19
2018-11-20T07:15:02.793Z,100110.23
2018-11-20T07:20:23.989Z,100104.55
2018-11-20T07:25:51.040Z,100112.06
2018-11-20T07:31:18.129Z,100091.02
2018-11-20T07:36:51.183Z,100106.62
2018-11-20T07:42:33.281Z,100101.48
2018-11-20T07:47:57.031Z,100087.02
2018-11-20T07:53:18.317Z,100086.58
2018-11-20T07:58:43.097Z,100088.34
2018-11-20T08:04:05.997Z,100080.72
2018-11-20T08:09:33.032Z,100092.86
2018-11-20T08:15:11.405Z,100088.97
2018-11-20T08:20:34.589Z,100077.59
2018-11-20T08:26:16.695Z,100059.43
2018-11-20T08:31:43.436Z,100073.95
2018-11-20T08:37:13.728Z,100072.98
2018-11-20T08:42:46.776Z,100069.43
2018-11-20T08:48:09.074Z,100070.36
2018-11-20T08:53:51.553Z,100066.63
2018-11-20T08:59:11.220Z,100060.55
2018-11-20T09:04:36.869Z,100062.40
2018-11-20T09:10:02.616Z,100067.39
2018-11-20T09:15:25.360Z,100052.20
2018-11-20T09:21:04.641Z,100041.33
2018-11-20T09:26:43.531Z,100048.45
2018-11-20T09:32:12.715Z,100035.62
2018-11-20T09:37:35.633Z,100041.75
2018-11-20T09:43:05.433Z,100023.91
2018-11-20T09:48:24.545Z,100044.66
2018-11-20T09:53:50.072Z,100031.02
2018-11-20T09:59:13.913Z,100036.87
2018-11-20T10:04:46.928Z,100040.55
2018-11-20T10:10:17.242Z,100029.08
2018-11-20T10:15:40.060Z,100019.18
2018-11-20T10:21:08.061Z,100019.94
2018-11-20T10:26:40.783Z,100009.86
2018-11-20T10:32:04.677Z,100011.26
2018-11-20T10:37:37.756Z,99994.20
2018-11-20T10:43:04.954Z,99990.52
2018-11-20T10:48:28.967Z,99985.88
2018-11-20T10:54:14.291Z,99981.66
2018-11-20T10:59:41.303Z,99974.32
2018-11-20T11:05:06.675Z,99974.86
2018-11-20T11:10:39.640Z,99986.99
2018-11-20T11:16:20.906Z,99982.77
2018-11-20T11:27:11.064Z,99971.73
2018-11-20T11:32:33.847Z,99984.45
2018-11-20T11:38:10.306Z,99977.60
2018-11-20T11:43:28.229Z,99965.75
2018-11-20T11:48:51.169Z,99958.36
2018-11-20T11:54:15.054Z,99956.20
2018-11-20T11:59:37.497Z,99941.91
2018-11-20T12:05:07.685Z,99944.70
2018-11-20T12:10:36.275Z,99932.47
2018-11-20T12:15:47.138Z,99917.05
2018-11-20T12:21:13.274Z,99902.64
2018-11-20T12:26:43.909Z,99899.30
2018-11-20T12:32:06.377Z,99885.86
2018-11-20T12:37:34.013Z,99870.11
2018-11-20T12:42:57.685Z,99870.43
2018-11-20T12:48:22.394Z,99859.16
2018-11-20T12:53:44.525Z,99854.58
2018-11-20T12:59:17.726Z,99845.44
2018-11-20T13:05:01.271Z,99844.16
2018-11-20T13:10:28.911Z,99843.06
2018-11-20T13:15:49.396Z,99854.33
2018-11-20T13:21:21.396Z,99847.87
2018-11-20T13:26:48.070Z,99853.41
2018-11-20T13:32:12.292Z,99832.63
2018-11-20T13:37:39.291Z,99849.56
2018-11-20T13:43:04.814Z,99855.44
2018-11-20T13:48:21.707Z,99854.69
2018-11-20T13:53:56.652Z,99872.20
2018-11-20T13:59:35.953Z,99864.94
2018-11-20T14:04:52.785Z,99865.42
2018-11-20T14:10:15.302Z,99869.66
2018-11-20T14:15:38.051Z,99873.30
2018-11-20T14:21:04.975Z,99865.80
2018-11-20T14:26:34.602Z,99854.84
2018-11-20T14:32:10.599Z,99844.90
2018-11-20T14:37:40.668Z,99843.55
2018-11-20T14:43:12.478Z,99839.44
2018-11-20T14:48:35.286Z,99844.97
2018-11-20T14:54:02.065Z,99853.98
2018-11-20T14:59:35.655Z,99869.83
2018-11-20T15:05:03.616Z,99847.78
2018-11-20T15:10:28.264Z,99848.64
2018-11-20T15:15:49.576Z,99851.89
2018-11-20T15:21:22.719Z,99853.72
2018-11-20T15:26:56.361Z,99859.48
2018-11-20T15:32:27.077Z,99869.77
2018-11-20T15:37:49.600Z,99866.67
2018-11-20T15:43:12.107Z,99853.42
2018-11-20T15:48:48.146Z,99846.52
2018-11-20T15:54:27.368Z,99860.36
2018-11-20T15:59:59.805Z,99860.41
2018-11-20T16:05:35.968Z,99855.99
2018-11-20T16:11:02.894Z,99862.96
2018-11-20T16:16:32.624Z,99869.55
2018-11-20T16:22:12.143Z,99868.97
2018-11-20T16:27:34.949Z,99875.98
2018-11-20T16:33:01.610Z,99878.16
2018-11-20T16:38:17.536Z,99892.81
2018-11-20T16:43:40.410Z,99905.60
2018-11-20T16:49:04.435Z,99909.37
2018-11-20T16:54:43.586Z,99921.87
2018-11-20T17:00:06.406Z,99925.26
2018-11-20T17:05:22.785Z,99931.38
2018-11-20T17:10:46.868Z,99933.66
2018-11-20T17:16:11.671Z,99934.28
2018-11-20T17:21:34.149Z,99943.70
2018-11-20T17:26:57.219Z,99944.33
2018-11-20T17:32:21.910Z,99942.97
2018-11-20T17:37:46.058Z,99937.14
2018-11-20T17:43:10.237Z,99941.66
2018-11-20T17:48:46.211Z,99944.33
2018-11-20T17:54:16.035Z,99937.78
2018-11-20T17:59:43.429Z,99941.47
2018-11-20T18:05:10.205Z,99926.88
2018-11-20T18:10:25.435Z,99932.42
2018-11-20T18:15:48.940Z,99937.58
2018-11-20T18:21:18.533Z,99944.70
2018-11-20T18:26:45.577Z,99945.77
2018-11-20T18:32:16.310Z,99930.52
2018-11-20T18:37:45.516Z,99943.39
2018-11-20T18:43:14.152Z,99939.86
2018-11-20T18:48:41.504Z,99942.69
2018-11-20T18:54:15.104Z,99958.20
2018-11-20T18:59:38.386Z,99953.59
2018-11-20T19:05:02.950Z,99943.68
2018-11-20T19:10:26.810Z,99957.28
2018-11-20T19:16:10.126Z,99947.33
2018-11-20T19:21:27.617Z,99963.02
2018-11-20T19:27:06.232Z,99958.30
2018-11-20T19:34:20.024Z,99975.92
2018-11-20T19:39:48.707Z,99982.10
2018-11-20T19:45:02.792Z,99993.59
2018-11-20T19:50:31.854Z,99996.72
2018-11-20T19:56:01.141Z,100012.05
2018-11-20T20:01:33.468Z,100007.44
2018-11-20T20:06:56.980Z,100011.13
2018-11-20T20:12:23.414Z,100015.41
2018-11-20T20:17:44.023Z,100014.88
2018-11-20T20:23:13.770Z,100014.33
2018-11-20T20:28:48.163Z,100010.84
2018-11-20T20:34:23.507Z,100031.03
2018-11-20T20:40:02.269Z,100032.30
2018-11-20T20:45:27.317Z,100032.59
2018-11-20T20:50:49.399Z,100036.56
2018-11-20T20:56:11.255Z,100037.40
2018-11-20T21:01:43.770Z,100041.91
2018-11-20T21:07:09.827Z,100037.45
2018-11-20T21:12:45.383Z,100040.84
2018-11-20T21:18:07.675Z,100043.22
2018-11-20T21:23:40.769Z,100051.77
2018-11-20T21:29:03.315Z,100054.05
2018-11-20T21:34:35.071Z,100060.06
2018-11-20T21:40:11.031Z,100053.80
2018-11-20T21:45:52.127Z,100067.69
2018-11-20T21:51:18.427Z,100076.81
2018-11-20T21:56:47.231Z,100078.31
2018-11-20T22:02:31.621Z,100081.95
2018-11-20T22:07:57.232Z,100096.99
2018-11-20T22:13:39.051Z,100087.45
2018-11-20T22:19:02.018Z,100096.92
2018-11-20T22:24:26.309Z,100096.05
2018-11-20T22:30:01.575Z,100104.09
2018-11-20T22:35:23.611Z,100121.13
2018-11-20T22:40:46.485Z,100123.52
2018-11-20T22:46:09.648Z,100124.09
2018-11-20T22:51:36.169Z,100132.34
2018-11-20T22:57:02.525Z,100123.45
2018-11-20T23:02:30.646Z,100123.92
2018-11-20T23:07:50.885Z,100122.16
2018-11-20T23:12:55.916Z,100129.23
2018-11-20T23:18:00.134Z,100133.95
2018-11-20T23:23:04.237Z,100134.67
2018-11-20T23:28:09.035Z,100137.12
2018-11-20T23:33:13.250Z,100138.78
2018-11-20T23:38:17.753Z,100132.00
2018-11-20T23:43:25.461Z,100132.70
2018-11-20T23:48:30.318Z,100134.01
2018-11-20T23:53:34.573Z,100139.97
2018-11-20T23:58:38.821Z,100139.42
